createdAt,value
2022-10-19T00:00:06.220Z,3.03
2022-10-19T00:02:36.813Z,2.38
2022-10-19T00:05:03.468Z,3.25
2022-10-19T00:07:29.865Z,3.22
2022-10-19T00:09:56.192Z,2.47
2022-10-19T00:12:22.471Z,2.60
2022-10-19T00:14:48.867Z,2.63
2022-10-19T00:17:15.273Z,2.72
2022-10-19T00:19:41.644Z,2.88
2022-10-19T00:22:10.339Z,2.67
2022-10-19T00:24:39.550Z,2.58
2022-10-19T00:27:06.309Z,2.42
2022-10-19T00:29:32.639Z,2.88
2022-10-19T00:31:58.966Z,2.83
2022-10-19T00:34:25.342Z,2.40
2022-10-19T00:36:51.670Z,2.38
2022-10-19T00:39:19.011Z,2.58
2022-10-19T00:41:47.463Z,2.13
2022-10-19T00:44:13.775Z,2.80
2022-10-19T00:46:42.686Z,2.30
2022-10-19T00:49:24.873Z,2.05
2022-10-19T00:51:54.778Z,2.00
2022-10-19T00:54:22.061Z,1.98
2022-10-19T00:56:52.011Z,2.60
2022-10-19T00:59:20.798Z,1.98
2022-10-19T01:01:48.828Z,1.75
2022-10-19T01:04:15.511Z,1.75
2022-10-19T01:06:42.062Z,2.22
2022-10-19T01:09:09.044Z,1.90
2022-10-19T01:12:06.385Z,1.90
2022-10-19T01:15:01.553Z,2.13
2022-10-19T01:17:45.126Z,1.90
2022-10-19T01:20:33.195Z,1.77
2022-10-19T01:23:24.241Z,2.00
2022-10-19T01:26:15.331Z,2.40
2022-10-19T01:29:12.715Z,1.88
2022-10-19T01:31:47.095Z,1.77
2022-10-19T01:34:24.878Z,1.73
2022-10-19T01:37:09.889Z,1.67
2022-10-19T01:39:51.470Z,2.13
2022-10-19T01:42:40.563Z,1.90
2022-10-19T01:45:14.072Z,1.75
2022-10-19T01:48:05.009Z,2.10
2022-10-19T01:50:43.103Z,1.90
2022-10-19T01:53:12.321Z,1.83
2022-10-19T01:55:43.033Z,2.20
2022-10-19T01:58:13.817Z,2.25
2022-10-19T02:00:44.004Z,2.60
2022-10-19T02:03:12.730Z,2.88
2022-10-19T02:05:41.538Z,3.45
2022-10-19T02:08:20.168Z,3.10
2022-10-19T02:10:47.407Z,2.85
2022-10-19T02:13:16.267Z,2.63
2022-10-19T02:15:47.759Z,2.90
2022-10-19T02:18:19.612Z,3.47
2022-10-19T02:20:46.380Z,2.80
2022-10-19T02:23:16.932Z,3.47
2022-10-19T02:25:43.255Z,2.83
2022-10-19T02:28:09.679Z,3.83
2022-10-19T02:30:36.060Z,2.70
2022-10-19T02:33:05.460Z,2.75
2022-10-19T02:35:31.790Z,2.67
2022-10-19T02:38:01.137Z,3.20
2022-10-19T02:40:32.069Z,2.47
2022-10-19T02:43:02.477Z,2.88
2022-10-19T02:45:32.244Z,3.53
2022-10-19T02:48:02.530Z,3.45
2022-10-19T02:50:29.267Z,3.40
2022-10-19T02:52:57.917Z,4.80
2022-10-19T02:55:24.659Z,3.53
2022-10-19T02:57:51.117Z,3.08
2022-10-19T03:00:17.678Z,3.65
2022-10-19T03:02:44.069Z,3.83
2022-10-19T03:05:10.396Z,3.67
2022-10-19T03:07:37.017Z,3.17
2022-10-19T03:10:03.827Z,3.45
2022-10-19T03:12:30.137Z,2.92
2022-10-19T03:14:56.508Z,3.03
2022-10-19T03:17:22.821Z,3.08
2022-10-19T03:19:49.158Z,3.00
2022-10-19T03:22:15.577Z,3.22
2022-10-19T03:24:42.101Z,2.97
2022-10-19T03:27:08.654Z,2.67
2022-10-19T03:29:34.996Z,2.90
2022-10-19T03:32:01.314Z,2.75
2022-10-19T03:34:27.672Z,2.50
2022-10-19T03:36:54.161Z,2.58
2022-10-19T03:39:20.486Z,3.58
2022-10-19T03:41:46.866Z,1.98
2022-10-19T03:44:13.638Z,2.47
2022-10-19T03:46:40.397Z,2.30
2022-10-19T03:49:06.841Z,2.25
2022-10-19T03:51:34.077Z,1.95
2022-10-19T03:54:06.463Z,2.28
2022-10-19T03:56:37.023Z,2.80
2022-10-19T03:59:05.711Z,2.60
2022-10-19T04:01:37.905Z,2.70
2022-10-19T04:04:07.462Z,2.38
2022-10-19T04:06:36.585Z,2.67
2022-10-19T04:09:04.599Z,2.47
2022-10-19T04:11:32.304Z,2.55
2022-10-19T04:13:59.614Z,2.80
2022-10-19T04:16:27.710Z,2.53
2022-10-19T04:18:54.561Z,2.63
2022-10-19T04:21:27.867Z,2.50
2022-10-19T04:23:59.174Z,2.53
2022-10-19T04:26:25.967Z,2.67
2022-10-19T04:28:52.495Z,2.30
2022-10-19T04:31:18.885Z,2.75
2022-10-19T04:36:12.715Z,2.78
2022-10-19T04:38:39.186Z,2.75
2022-10-19T04:41:08.236Z,2.83
2022-10-19T04:43:35.265Z,3.30
2022-10-19T04:46:04.119Z,2.88
2022-10-19T04:48:30.514Z,2.72
2022-10-19T04:50:57.060Z,2.95
2022-10-19T04:55:56.123Z,3.25
2022-10-19T04:58:22.564Z,3.40
2022-10-19T05:00:49.040Z,3.28
2022-10-19T05:03:16.420Z,2.67
2022-10-19T05:05:43.220Z,3.17
2022-10-19T05:08:10.614Z,2.70
2022-10-19T05:10:38.171Z,3.05
2022-10-19T05:13:05.086Z,2.75
2022-10-19T05:15:31.488Z,2.33
2022-10-19T05:17:58.037Z,6.63
2022-10-19T05:20:24.842Z,11.93
2022-10-19T05:22:51.572Z,14.43
2022-10-19T05:25:18.195Z,11.45
2022-10-19T05:27:44.576Z,7.88
2022-10-19T05:30:11.074Z,6.82
2022-10-19T05:32:37.414Z,9.07
2022-10-19T05:35:03.969Z,5.35
2022-10-19T05:37:30.308Z,5.03
2022-10-19T05:39:56.610Z,5.10
2022-10-19T05:42:23.050Z,5.43
2022-10-19T05:44:49.384Z,4.93
2022-10-19T05:47:15.732Z,4.03
2022-10-19T05:49:42.299Z,3.40
2022-10-19T05:52:08.633Z,3.25
2022-10-19T05:54:36.963Z,3.00
2022-10-19T05:57:03.439Z,4.40
2022-10-19T05:59:29.823Z,3.33
2022-10-19T06:01:56.220Z,3.03
2022-10-19T06:04:22.618Z,2.65
2022-10-19T06:06:48.968Z,2.83
2022-10-19T06:09:15.315Z,5.72
2022-10-19T06:11:42.864Z,2.53
2022-10-19T06:14:13.592Z,2.90
2022-10-19T06:16:40.067Z,2.75
2022-10-19T06:19:06.533Z,2.40
2022-10-19T06:21:34.291Z,2.50
2022-10-19T06:24:04.776Z,2.60
2022-10-19T06:26:32.793Z,3.17
2022-10-19T06:29:00.738Z,2.50
2022-10-19T06:31:29.267Z,2.70
2022-10-19T06:33:56.072Z,2.45
2022-10-19T06:36:25.200Z,2.67
2022-10-19T06:38:53.093Z,2.53
2022-10-19T06:41:20.226Z,2.65
2022-10-19T06:43:53.856Z,2.20
2022-10-19T06:46:23.162Z,2.08
2022-10-19T06:48:57.871Z,2.90
2022-10-19T06:51:25.995Z,2.65
2022-10-19T06:53:56.492Z,2.60
2022-10-19T06:56:24.830Z,2.80
2022-10-19T06:58:51.706Z,2.80
2022-10-19T07:01:18.475Z,2.53
2022-10-19T07:03:44.950Z,3.08
2022-10-19T07:06:12.807Z,2.92
2022-10-19T07:08:40.539Z,2.38
2022-10-19T07:11:10.290Z,2.90
2022-10-19T07:13:36.793Z,2.53
2022-10-19T07:16:14.579Z,2.40
2022-10-19T07:18:44.830Z,2.33
2022-10-19T07:21:15.526Z,2.38
2022-10-19T07:23:43.383Z,2.47
2022-10-19T07:26:14.094Z,2.22
2022-10-19T07:28:42.169Z,2.33
2022-10-19T07:31:12.234Z,2.63
2022-10-19T07:33:38.762Z,2.60
2022-10-19T07:36:07.750Z,2.50
2022-10-19T07:38:34.913Z,2.47
2022-10-19T07:41:11.089Z,2.90
2022-10-19T07:43:37.387Z,3.00
2022-10-19T07:46:06.967Z,2.33
2022-10-19T07:48:34.911Z,2.35
2022-10-19T07:51:03.751Z,2.28
2022-10-19T07:53:30.128Z,2.50
2022-10-19T07:56:03.025Z,2.83
2022-10-19T07:58:29.392Z,2.17
2022-10-19T08:01:04.501Z,2.20
2022-10-19T08:04:31.298Z,2.33
2022-10-19T08:06:18.972Z,2.20
2022-10-19T08:08:46.733Z,2.10
2022-10-19T08:11:19.071Z,1.75
2022-10-19T08:13:45.409Z,1.70
2022-10-19T08:16:30.135Z,2.63
2022-10-19T08:18:59.704Z,2.33
2022-10-19T08:21:27.549Z,2.13
2022-10-19T08:23:54.523Z,2.15
2022-10-19T08:26:21.236Z,2.20
2022-10-19T08:28:47.849Z,2.28
2022-10-19T08:31:20.226Z,2.67
2022-10-19T08:33:48.770Z,2.03
2022-10-19T08:36:15.343Z,2.30
2022-10-19T08:38:44.677Z,2.47
2022-10-19T08:41:37.948Z,2.40
2022-10-19T08:44:12.929Z,2.42
2022-10-19T08:47:15.238Z,2.20
2022-10-19T08:49:43.301Z,2.30
2022-10-19T08:52:18.827Z,2.05
2022-10-19T08:55:05.907Z,2.03
2022-10-19T08:57:57.853Z,1.88
2022-10-19T09:00:24.241Z,1.80
2022-10-19T09:03:22.999Z,2.00
2022-10-19T09:06:40.365Z,2.13
2022-10-19T09:09:11.172Z,1.38
2022-10-19T09:11:42.645Z,2.03
2022-10-19T09:14:08.915Z,1.90
2022-10-19T09:16:35.357Z,1.77
2022-10-19T09:19:03.702Z,1.70
2022-10-19T09:21:47.484Z,1.02
2022-10-19T09:24:39.224Z,1.75
2022-10-19T09:27:10.689Z,1.15
2022-10-19T09:29:41.993Z,1.05
2022-10-19T09:32:15.888Z,1.05
2022-10-19T09:34:50.965Z,0.98
2022-10-19T09:37:25.744Z,1.40
2022-10-19T09:39:55.367Z,1.40
2022-10-19T09:42:32.982Z,1.15
2022-10-19T09:45:11.767Z,1.20
2022-10-19T09:47:40.395Z,1.10
2022-10-19T09:50:18.057Z,1.33
2022-10-19T09:52:46.814Z,1.08
2022-10-19T09:55:13.108Z,0.93
2022-10-19T09:57:48.765Z,1.00
2022-10-19T10:00:21.738Z,0.90
2022-10-19T10:02:55.362Z,0.90
2022-10-19T10:05:37.611Z,0.70
2022-10-19T10:08:25.860Z,0.77
2022-10-19T10:11:12.154Z,0.80
2022-10-19T10:13:42.475Z,0.90
2022-10-19T10:16:16.448Z,1.03
2022-10-19T10:18:59.567Z,1.02
2022-10-19T10:21:36.321Z,0.80
2022-10-19T10:24:06.792Z,0.52
2022-10-19T10:26:43.986Z,0.43
2022-10-19T10:29:20.633Z,0.60
2022-10-19T10:31:53.590Z,0.60
2022-10-19T10:35:01.469Z,0.57
2022-10-19T10:37:42.799Z,0.70
2022-10-19T10:40:36.114Z,0.98
2022-10-19T10:43:08.578Z,0.68
2022-10-19T10:45:46.613Z,0.60
2022-10-19T10:48:30.192Z,0.70
2022-10-19T10:50:59.010Z,0.77
2022-10-19T10:53:35.295Z,0.20
2022-10-19T10:56:02.325Z,0.70
2022-10-19T10:58:47.496Z,0.57
2022-10-19T11:01:23.075Z,0.77
2022-10-19T11:03:57.429Z,0.50
2022-10-19T11:06:26.194Z,0.50
2022-10-19T11:09:06.906Z,0.75
2022-10-19T11:11:41.778Z,1.00
2022-10-19T11:14:30.329Z,3.10
2022-10-19T11:17:00.169Z,0.88
2022-10-19T11:19:32.234Z,0.70
2022-10-19T11:22:23.618Z,0.95
2022-10-19T11:25:04.862Z,0.60
2022-10-19T11:28:10.909Z,0.93
2022-10-19T11:31:19.867Z,0.82
2022-10-19T11:34:25.206Z,0.77
2022-10-19T11:37:20.770Z,0.77
2022-10-19T11:39:57.317Z,0.60
2022-10-19T11:42:32.709Z,1.42
2022-10-19T11:45:18.391Z,0.98
2022-10-19T11:48:00.135Z,0.82
2022-10-19T11:50:54.236Z,1.10
2022-10-19T11:53:43.097Z,1.17
2022-10-19T11:56:19.230Z,1.45
2022-10-19T11:58:55.384Z,1.50
2022-10-19T12:01:33.885Z,1.08
2022-10-19T12:04:22.621Z,1.30
2022-10-19T12:07:03.848Z,1.20
2022-10-19T12:12:22.572Z,1.25
2022-10-19T12:14:54.904Z,1.00
2022-10-19T12:17:30.086Z,0.73
2022-10-19T12:20:02.978Z,1.00
2022-10-19T12:22:31.074Z,0.80
2022-10-19T12:25:00.682Z,0.70
2022-10-19T12:27:34.184Z,0.88
2022-10-19T12:30:13.711Z,0.77
2022-10-19T12:32:54.344Z,0.90
2022-10-19T12:35:44.691Z,0.93
2022-10-19T12:38:23.401Z,0.80
2022-10-19T12:41:00.152Z,1.00
2022-10-19T12:43:52.721Z,0.90
2022-10-19T12:46:40.844Z,1.10
2022-10-19T12:49:25.996Z,0.77
2022-10-19T12:51:53.816Z,0.70
2022-10-19T12:54:32.733Z,0.70
2022-10-19T12:57:01.737Z,0.68
2022-10-19T12:59:32.553Z,1.08
2022-10-19T13:02:00.524Z,1.08
2022-10-19T13:04:32.372Z,0.63
2022-10-19T13:07:05.554Z,0.82
2022-10-19T13:09:42.340Z,0.75
2022-10-19T13:12:18.010Z,1.10
2022-10-19T13:14:54.011Z,0.70
2022-10-19T13:17:46.262Z,0.60
2022-10-19T13:20:15.633Z,0.50
2022-10-19T13:23:03.344Z,0.50
2022-10-19T13:25:34.098Z,0.60
2022-10-19T13:30:36.192Z,0.65
2022-10-19T13:33:42.745Z,0.93
2022-10-19T13:36:10.465Z,0.60
2022-10-19T13:38:42.475Z,0.80
2022-10-19T13:41:17.055Z,0.63
2022-10-19T13:43:43.374Z,0.50
2022-10-19T13:46:16.509Z,0.50
2022-10-19T13:49:02.012Z,0.50
2022-10-19T13:52:06.117Z,0.60
2022-10-19T13:54:51.112Z,0.77
2022-10-19T13:58:00.485Z,0.60
2022-10-19T14:01:27.187Z,0.60
2022-10-19T14:04:16.409Z,0.95
2022-10-19T14:07:24.079Z,0.68
2022-10-19T14:10:01.194Z,1.00
2022-10-19T14:12:29.727Z,0.90
2022-10-19T14:14:56.146Z,0.77
2022-10-19T14:17:25.316Z,0.70
2022-10-19T14:19:55.225Z,0.68
2022-10-19T14:22:25.301Z,0.50
2022-10-19T14:24:52.471Z,0.80
2022-10-19T14:27:23.759Z,0.98
2022-10-19T14:29:52.659Z,0.90
2022-10-19T14:32:23.329Z,0.80
2022-10-19T14:34:49.999Z,0.93
2022-10-19T14:37:20.739Z,1.58
2022-10-19T14:40:07.965Z,0.80
2022-10-19T14:42:39.866Z,1.02
2022-10-19T14:45:13.243Z,1.10
2022-10-19T14:47:52.042Z,0.90
2022-10-19T14:50:20.733Z,1.00
2022-10-19T14:52:50.120Z,1.52
2022-10-19T14:55:19.102Z,1.23
2022-10-19T14:57:49.871Z,1.13
2022-10-19T15:03:03.279Z,1.08
2022-10-19T15:05:34.792Z,1.50
2022-10-19T15:08:11.871Z,1.27
2022-10-19T15:10:43.378Z,1.63
2022-10-19T15:13:27.429Z,1.25
2022-10-19T15:15:54.525Z,1.50
2022-10-19T15:18:47.715Z,1.30
2022-10-19T15:21:18.512Z,1.77
2022-10-19T15:23:47.342Z,1.73
2022-10-19T15:26:25.893Z,1.60
2022-10-19T15:28:53.998Z,1.55
2022-10-19T15:31:27.936Z,1.85
2022-10-19T15:33:57.151Z,1.52
2022-10-19T15:36:24.999Z,1.90
2022-10-19T15:39:06.083Z,1.80
2022-10-19T15:41:43.888Z,1.58
2022-10-19T15:44:47.172Z,1.80
2022-10-19T15:47:17.938Z,1.42
2022-10-19T15:49:44.356Z,1.65
2022-10-19T15:52:18.053Z,1.30
2022-10-19T15:54:55.418Z,1.55
2022-10-19T15:57:36.372Z,2.03
2022-10-19T16:00:17.563Z,1.55
2022-10-19T16:02:44.595Z,1.20
2022-10-19T16:05:11.289Z,1.30
2022-10-19T16:07:40.002Z,1.20
2022-10-19T16:10:07.482Z,1.73
2022-10-19T16:12:33.935Z,1.40
2022-10-19T16:15:00.428Z,1.60
2022-10-19T16:17:27.041Z,1.40
2022-10-19T16:19:53.387Z,1.85
2022-10-19T16:22:19.930Z,1.40
2022-10-19T16:24:46.338Z,1.30
2022-10-19T16:27:15.116Z,1.25
2022-10-19T16:29:42.908Z,1.45
2022-10-19T16:32:09.456Z,1.63
2022-10-19T16:34:35.865Z,6.85
2022-10-19T16:37:05.746Z,3.80
2022-10-19T16:42:14.049Z,1.80
2022-10-19T16:44:40.478Z,1.80
2022-10-19T16:47:06.858Z,1.70
2022-10-19T16:49:33.200Z,1.92
2022-10-19T16:52:01.519Z,1.75
2022-10-19T16:54:29.846Z,1.48
2022-10-19T16:56:56.212Z,1.98
2022-10-19T16:59:22.630Z,2.25
2022-10-19T17:01:49.118Z,1.88
2022-10-19T17:04:17.856Z,1.70
2022-10-19T17:06:44.500Z,1.88
2022-10-19T17:11:57.227Z,1.70
2022-10-19T17:14:23.604Z,1.50
2022-10-19T17:16:49.948Z,1.98
2022-10-19T17:19:16.290Z,2.00
2022-10-19T17:21:42.750Z,1.63
2022-10-19T17:24:20.122Z,2.03
2022-10-19T17:26:48.286Z,1.98
2022-10-19T17:29:14.650Z,1.98
2022-10-19T17:31:41.579Z,2.50
2022-10-19T17:34:08.449Z,1.90
2022-10-19T17:39:17.815Z,2.10
2022-10-19T17:41:46.366Z,1.88
2022-10-19T17:44:13.083Z,1.80
2022-10-19T17:46:39.448Z,2.05
2022-10-19T17:49:05.989Z,2.20
2022-10-19T17:51:35.149Z,1.40
2022-10-19T17:54:07.725Z,1.63
2022-10-19T17:56:35.850Z,2.22
2022-10-19T17:59:03.113Z,1.88
2022-10-19T18:01:30.220Z,2.22
2022-10-19T18:03:56.828Z,1.80
2022-10-19T18:06:31.315Z,1.70
2022-10-19T18:08:59.171Z,1.80
2022-10-19T18:11:36.920Z,1.90
2022-10-19T18:14:04.524Z,2.03
2022-10-19T18:16:33.989Z,1.92
2022-10-19T18:19:02.236Z,2.08
2022-10-19T18:21:31.356Z,1.58
2022-10-19T18:24:00.083Z,1.88
2022-10-19T18:26:29.349Z,1.63
2022-10-19T18:28:57.275Z,1.92
2022-10-19T18:31:31.422Z,1.90
2022-10-19T18:34:04.422Z,2.17
2022-10-19T18:36:32.671Z,1.80
2022-10-19T18:39:01.775Z,1.98
2022-10-19T18:41:29.601Z,1.48
2022-10-19T18:44:03.200Z,2.00
2022-10-19T18:46:30.205Z,2.03
2022-10-19T18:48:56.598Z,1.95
2022-10-19T18:51:23.984Z,1.75
2022-10-19T18:53:54.741Z,1.88
2022-10-19T18:56:22.298Z,2.08
2022-10-19T18:58:49.051Z,1.77
2022-10-19T19:01:18.229Z,1.88
2022-10-19T19:03:50.153Z,1.90
2022-10-19T19:06:19.007Z,1.92
2022-10-19T19:08:45.801Z,2.38
2022-10-19T19:11:14.816Z,1.60
2022-10-19T19:13:42.627Z,1.83
2022-10-19T19:16:09.557Z,1.90
2022-10-19T19:18:36.072Z,1.70
2022-10-19T19:21:03.716Z,2.10
2022-10-19T19:23:30.906Z,1.98
2022-10-19T19:25:57.427Z,2.08
2022-10-19T19:28:23.824Z,1.80
2022-10-19T19:30:50.189Z,2.28
2022-10-19T19:33:16.524Z,1.80
2022-10-19T19:35:44.801Z,2.22
2022-10-19T19:38:12.055Z,1.90
2022-10-19T19:40:43.439Z,2.42
2022-10-19T19:43:10.424Z,1.90
2022-10-19T19:45:37.478Z,1.90
2022-10-19T19:48:05.681Z,2.20
2022-10-19T19:50:33.349Z,1.80
2022-10-19T19:52:59.985Z,1.77
2022-10-19T19:55:26.930Z,1.63
2022-10-19T19:57:54.396Z,1.83
2022-10-19T20:00:22.120Z,1.67
2022-10-19T20:02:56.545Z,1.67
2022-10-19T20:05:24.000Z,1.50
2022-10-19T20:07:51.161Z,1.60
2022-10-19T20:10:18.167Z,1.70
2022-10-19T20:12:46.451Z,1.50
2022-10-19T20:15:18.116Z,3.22
2022-10-19T20:17:45.209Z,1.80
2022-10-19T20:20:13.840Z,1.90
2022-10-19T20:22:44.964Z,1.70
2022-10-19T20:25:11.598Z,1.25
2022-10-19T20:27:38.326Z,2.05
2022-10-19T20:30:06.015Z,1.50
2022-10-19T20:32:32.711Z,1.88
2022-10-19T20:34:59.710Z,1.80
2022-10-19T20:37:26.526Z,1.60
2022-10-19T20:39:52.927Z,1.90
2022-10-19T20:42:19.296Z,1.42
2022-10-19T20:44:45.636Z,1.40
2022-10-19T20:47:12.457Z,1.80
2022-10-19T20:49:40.687Z,1.92
2022-10-19T20:52:07.136Z,1.65
2022-10-19T20:54:33.704Z,1.83
2022-10-19T20:57:00.151Z,1.73
2022-10-19T20:59:27.840Z,1.67
2022-10-19T21:01:56.624Z,2.25
2022-10-19T21:04:25.472Z,1.63
2022-10-19T21:06:52.697Z,2.05
2022-10-19T21:09:23.382Z,1.60
2022-10-19T21:11:51.679Z,1.90
2022-10-19T21:14:25.201Z,2.05
2022-10-19T21:16:56.531Z,2.28
2022-10-19T21:19:25.561Z,1.70
2022-10-19T21:21:57.674Z,1.85
2022-10-19T21:24:27.256Z,2.33
2022-10-19T21:26:53.726Z,2.03
2022-10-19T21:29:20.519Z,2.30
2022-10-19T21:31:49.460Z,2.22
2022-10-19T21:34:21.716Z,2.10
2022-10-19T21:36:48.387Z,1.77
2022-10-19T21:39:14.770Z,2.17
2022-10-19T21:41:41.353Z,2.08
2022-10-19T21:44:08.037Z,1.85
2022-10-19T21:46:36.717Z,1.83
2022-10-19T21:49:12.577Z,1.95
2022-10-19T21:51:46.353Z,1.92
2022-10-19T21:54:19.014Z,1.98
2022-10-19T21:56:46.187Z,1.90
2022-10-19T21:59:13.771Z,2.10
2022-10-19T22:01:41.441Z,2.25
2022-10-19T22:04:12.576Z,2.17
2022-10-19T22:06:39.245Z,2.08
2022-10-19T22:09:07.593Z,2.10
2022-10-19T22:11:34.185Z,1.98
2022-10-19T22:14:02.393Z,1.38
2022-10-19T22:16:29.756Z,1.55
2022-10-19T22:18:56.448Z,2.10
2022-10-19T22:21:33.965Z,1.65
2022-10-19T22:24:06.699Z,2.45
2022-10-19T22:26:36.815Z,2.38
2022-10-19T22:29:04.813Z,1.10
2022-10-19T22:31:31.900Z,2.38
2022-10-19T22:34:01.138Z,2.30
2022-10-19T22:36:27.693Z,2.40
2022-10-19T22:38:54.991Z,2.97
2022-10-19T22:41:21.343Z,2.78
2022-10-19T22:43:47.676Z,2.22
2022-10-19T22:46:13.990Z,2.05
2022-10-19T22:48:40.306Z,2.50
2022-10-19T22:51:06.804Z,2.40
2022-10-19T22:53:33.148Z,2.88
2022-10-19T22:55:59.462Z,2.22
2022-10-19T22:58:25.804Z,2.40
2022-10-19T23:01:04.223Z,2.10
2022-10-19T23:03:30.594Z,2.60
2022-10-19T23:05:57.072Z,2.78
2022-10-19T23:08:23.480Z,2.35
2022-10-19T23:10:49.829Z,3.15
2022-10-19T23:13:16.443Z,3.10
2022-10-19T23:15:44.045Z,3.00
2022-10-19T23:18:10.762Z,2.90
2022-10-19T23:20:37.115Z,2.58
2022-10-19T23:23:03.530Z,2.63
2022-10-19T23:25:29.923Z,3.33
2022-10-19T23:27:56.272Z,3.05
2022-10-19T23:30:22.715Z,2.75
2022-10-19T23:32:49.067Z,3.35
2022-10-19T23:35:15.501Z,2.22
2022-10-19T23:37:41.866Z,2.15
2022-10-19T23:40:08.607Z,3.00
2022-10-19T23:42:34.920Z,2.72
2022-10-19T23:45:01.224Z,2.28
2022-10-19T23:47:27.732Z,3.13
2022-10-19T23:49:54.089Z,3.25
2022-10-19T23:52:20.443Z,3.40
2022-10-19T23:54:46.792Z,3.10
2022-10-19T23:57:13.121Z,3.28
2022-10-19T23:59:39.536Z,3.20
